createdAt,value
2022-09-06T00:02:19.399Z,99.90
2022-09-06T00:04:46.129Z,99.90
2022-09-06T00:07:12.809Z,99.90
2022-09-06T00:09:39.512Z,99.90
2022-09-06T00:12:06.452Z,99.90
2022-09-06T00:14:33.219Z,99.90
2022-09-06T00:17:00.827Z,99.90
2022-09-06T00:19:27.854Z,99.90
2022-09-06T00:21:54.553Z,99.90
2022-09-06T00:24:21.190Z,99.90
2022-09-06T00:26:47.876Z,99.90
2022-09-06T00:29:14.722Z,99.90
2022-09-06T00:31:41.387Z,99.90
2022-09-06T00:34:08.055Z,99.90
2022-09-06T00:36:34.828Z,99.90
2022-09-06T00:39:01.624Z,99.90
2022-09-06T00:41:28.397Z,99.90
2022-09-06T00:43:55.164Z,99.90
2022-09-06T00:46:26.607Z,99.90
2022-09-06T00:49:10.901Z,99.90
2022-09-06T00:51:38.058Z,99.90
2022-09-06T00:54:06.668Z,99.90
2022-09-06T00:56:37.861Z,99.90
2022-09-06T00:59:04.664Z,99.90
2022-09-06T01:01:31.417Z,99.90
2022-09-06T01:03:58.306Z,99.90
2022-09-06T01:06:47.764Z,99.90
2022-09-06T01:09:42.195Z,99.90
2022-09-06T01:12:14.200Z,99.90
2022-09-06T01:15:06.675Z,99.90
2022-09-06T01:17:45.408Z,99.90
2022-09-06T01:20:42.896Z,99.90
2022-09-06T01:23:52.361Z,99.90
2022-09-06T01:26:41.194Z,99.90
2022-09-06T01:29:33.669Z,99.90
2022-09-06T01:32:26.122Z,99.90
2022-09-06T01:35:22.396Z,99.90
2022-09-06T01:37:49.229Z,99.90
2022-09-06T01:40:16.061Z,99.90
2022-09-06T01:42:46.570Z,99.90
2022-09-06T01:45:20.355Z,99.90
2022-09-06T01:47:52.059Z,99.90
2022-09-06T01:50:22.010Z,99.90
2022-09-06T01:53:21.747Z,99.90
2022-09-06T01:55:58.799Z,99.90
2022-09-06T01:58:52.206Z,99.90
2022-09-06T02:01:38.433Z,99.90
2022-09-06T02:04:21.213Z,99.90
2022-09-06T02:06:54.831Z,99.90
2022-09-06T02:09:25.359Z,99.90
2022-09-06T02:11:56.560Z,99.90
2022-09-06T02:14:31.785Z,99.90
2022-09-06T02:16:59.874Z,99.90
2022-09-06T02:19:59.086Z,99.90
2022-09-06T02:22:29.904Z,99.90
2022-09-06T02:24:58.736Z,99.90
2022-09-06T02:27:25.742Z,99.90
2022-09-06T02:29:52.494Z,99.90
2022-09-06T02:32:24.371Z,99.90
2022-09-06T02:34:54.269Z,99.90
2022-09-06T02:37:22.796Z,99.90
2022-09-06T02:39:49.567Z,99.90
2022-09-06T02:42:17.504Z,99.90
2022-09-06T02:44:44.237Z,99.90
2022-09-06T02:47:10.937Z,99.90
2022-09-06T02:49:37.628Z,99.90
2022-09-06T02:52:04.537Z,99.90
2022-09-06T02:54:31.326Z,99.90
2022-09-06T02:56:58.071Z,99.90
2022-09-06T02:59:24.756Z,99.90
2022-09-06T03:01:51.866Z,99.90
2022-09-06T03:04:18.515Z,99.90
2022-09-06T03:06:45.506Z,99.90
2022-09-06T03:09:12.157Z,99.90
2022-09-06T03:11:38.861Z,99.90
2022-09-06T03:14:05.628Z,99.90
2022-09-06T03:16:32.344Z,99.90
2022-09-06T03:18:59.041Z,99.90
2022-09-06T03:21:25.724Z,99.90
2022-09-06T03:23:52.524Z,99.90
2022-09-06T03:26:19.262Z,99.90
2022-09-06T03:28:46.117Z,99.90
2022-09-06T03:31:12.964Z,99.90
2022-09-06T03:33:39.827Z,99.90
2022-09-06T03:36:06.823Z,99.90
2022-09-06T03:38:33.525Z,99.90
2022-09-06T03:41:00.294Z,99.90
2022-09-06T03:43:27.385Z,99.90
2022-09-06T03:45:57.702Z,99.90
2022-09-06T03:48:27.469Z,99.90
2022-09-06T03:50:56.767Z,99.90
2022-09-06T03:53:24.943Z,99.90
2022-09-06T03:55:54.268Z,99.90
2022-09-06T03:58:23.320Z,99.90
2022-09-06T04:00:59.317Z,99.90
2022-09-06T04:03:26.095Z,99.90
2022-09-06T04:05:52.750Z,99.90
2022-09-06T04:08:19.374Z,99.90
2022-09-06T04:10:49.150Z,99.90
2022-09-06T04:13:15.834Z,99.90
2022-09-06T04:15:47.285Z,99.90
2022-09-06T04:18:14.578Z,99.90
2022-09-06T04:20:41.683Z,99.90
2022-09-06T04:23:08.821Z,99.90
2022-09-06T04:25:35.566Z,99.90
2022-09-06T04:28:02.489Z,99.90
2022-09-06T04:30:29.170Z,99.90
2022-09-06T04:32:55.898Z,99.90
2022-09-06T04:35:23.015Z,99.90
2022-09-06T04:37:49.706Z,99.90
2022-09-06T04:40:16.432Z,99.90
2022-09-06T04:42:43.088Z,99.90
2022-09-06T04:45:10.358Z,99.90
2022-09-06T04:47:37.030Z,99.90
2022-09-06T04:50:04.194Z,99.90
2022-09-06T04:52:30.834Z,99.90
2022-09-06T04:54:57.542Z,99.90
2022-09-06T04:57:24.250Z,99.90
2022-09-06T04:59:50.890Z,99.90
2022-09-06T05:02:17.615Z,99.90
2022-09-06T05:04:44.271Z,99.90
2022-09-06T05:07:10.937Z,99.90
2022-09-06T05:09:37.585Z,99.90
2022-09-06T05:12:04.690Z,99.90
2022-09-06T05:14:31.338Z,99.90
2022-09-06T05:16:58.182Z,99.90
2022-09-06T05:19:25.394Z,99.90
2022-09-06T05:21:52.393Z,99.90
2022-09-06T05:24:19.212Z,99.90
2022-09-06T05:26:45.917Z,99.90
2022-09-06T05:29:12.621Z,99.90
2022-09-06T05:31:39.536Z,99.90
2022-09-06T05:34:06.302Z,99.90
2022-09-06T05:36:33.307Z,99.90
2022-09-06T05:39:00.300Z,99.90
2022-09-06T05:41:27.272Z,99.90
2022-09-06T05:43:54.120Z,99.90
2022-09-06T05:46:21.326Z,99.90
2022-09-06T05:48:55.880Z,99.90
2022-09-06T05:51:22.565Z,99.90
2022-09-06T05:53:49.350Z,99.90
2022-09-06T05:56:16.945Z,99.90
2022-09-06T05:58:43.700Z,99.90
2022-09-06T06:01:22.148Z,99.90
2022-09-06T06:04:00.408Z,99.90
2022-09-06T06:06:30.454Z,99.90
2022-09-06T06:08:57.415Z,99.90
2022-09-06T06:11:25.859Z,99.90
2022-09-06T06:13:53.286Z,99.90
2022-09-06T06:16:22.361Z,99.90
2022-09-06T06:18:52.194Z,99.90
2022-09-06T06:21:29.030Z,99.90
2022-09-06T06:23:58.389Z,99.90
2022-09-06T06:26:26.450Z,99.90
2022-09-06T06:28:53.556Z,99.90
2022-09-06T06:31:22.416Z,99.90
2022-09-06T06:33:49.648Z,99.90
2022-09-06T06:36:16.377Z,99.90
2022-09-06T06:38:45.062Z,99.90
2022-09-06T06:41:14.413Z,99.90
2022-09-06T06:43:41.527Z,99.90
2022-09-06T06:46:09.674Z,99.90
2022-09-06T06:48:37.492Z,99.90
2022-09-06T06:51:04.223Z,99.90
2022-09-06T06:53:30.967Z,99.90
2022-09-06T06:55:57.643Z,99.90
2022-09-06T06:58:24.622Z,99.90
2022-09-06T07:00:51.407Z,99.90
2022-09-06T07:03:18.448Z,99.90
2022-09-06T07:08:33.717Z,99.90
2022-09-06T07:11:00.612Z,99.90
2022-09-06T07:13:27.347Z,99.90
2022-09-06T07:16:07.490Z,99.90
2022-09-06T07:18:34.736Z,99.90
2022-09-06T07:26:36.346Z,99.90
2022-09-06T07:29:05.216Z,99.90
2022-09-06T07:34:20.446Z,99.90
2022-09-06T07:36:47.328Z,99.90
2022-09-06T07:39:14.156Z,99.90
2022-09-06T07:41:40.819Z,99.90
2022-09-06T07:44:07.467Z,99.90
2022-09-06T07:46:34.477Z,99.90
2022-09-06T07:49:03.619Z,99.90
2022-09-06T07:51:30.374Z,99.90
2022-09-06T07:54:13.208Z,99.90
2022-09-06T07:56:43.662Z,99.90
2022-09-06T07:59:10.314Z,99.90
2022-09-06T08:01:40.503Z,99.90
2022-09-06T08:04:15.629Z,99.90
2022-09-06T08:09:32.807Z,99.90
2022-09-06T08:11:59.517Z,99.90
2022-09-06T08:14:26.173Z,99.90
2022-09-06T08:16:52.889Z,99.90
2022-09-06T08:19:19.588Z,99.90
2022-09-06T08:21:46.251Z,99.90
2022-09-06T08:24:12.971Z,99.90
2022-09-06T08:26:42.301Z,99.90
2022-09-06T08:29:10.826Z,99.90
2022-09-06T08:31:40.701Z,99.90
2022-09-06T08:34:08.125Z,99.90
2022-09-06T08:36:35.473Z,99.90
2022-09-06T08:39:05.300Z,99.90
2022-09-06T08:42:00.659Z,99.90
2022-09-06T08:44:58.019Z,99.90
2022-09-06T08:47:25.479Z,99.90
2022-09-06T08:50:02.281Z,99.90
2022-09-06T08:53:15.604Z,99.90
2022-09-06T08:56:04.269Z,99.90
2022-09-06T08:58:59.384Z,99.90
2022-09-06T09:01:36.162Z,99.90
2022-09-06T09:04:05.389Z,99.90
2022-09-06T09:06:33.378Z,99.90
2022-09-06T09:09:13.233Z,99.90
2022-09-06T09:11:45.635Z,99.90
2022-09-06T09:14:26.676Z,99.90
2022-09-06T09:16:56.428Z,99.90
2022-09-06T09:19:23.069Z,98.40
2022-09-06T09:21:49.805Z,98.10
2022-09-06T09:24:16.543Z,97.20
2022-09-06T09:26:57.491Z,96.90
2022-09-06T09:29:28.629Z,97.10
2022-09-06T09:31:57.472Z,95.90
2022-09-06T09:34:33.763Z,95.20
2022-09-06T09:40:17.534Z,95.70
2022-09-06T09:42:44.559Z,93.70
2022-09-06T09:45:20.427Z,94.40
2022-09-06T09:47:47.149Z,93.10
2022-09-06T09:50:32.670Z,91.70
2022-09-06T09:53:15.247Z,92.70
2022-09-06T09:55:42.843Z,91.60
2022-09-06T09:58:36.537Z,91.20
2022-09-06T10:01:22.896Z,90.10
2022-09-06T10:09:36.109Z,86.30
2022-09-06T10:12:03.292Z,86.80
2022-09-06T10:14:39.561Z,86.10
2022-09-06T10:17:06.573Z,85.30
2022-09-06T10:19:45.703Z,85.70
2022-09-06T10:22:32.007Z,85.40
2022-09-06T10:25:32.242Z,87.30
2022-09-06T10:28:39.012Z,83.40
2022-09-06T10:31:36.896Z,83.10
2022-09-06T10:34:41.606Z,83.10
2022-09-06T10:37:45.061Z,80.30
2022-09-06T10:40:17.798Z,82.10
2022-09-06T10:42:50.585Z,80.00
2022-09-06T10:45:23.269Z,80.30
2022-09-06T10:48:14.931Z,81.70
2022-09-06T10:51:18.925Z,79.50
2022-09-06T10:54:07.165Z,77.90
2022-09-06T10:56:45.381Z,80.30
2022-09-06T10:59:40.640Z,77.40
2022-09-06T11:02:45.523Z,77.50
2022-09-06T11:08:46.333Z,76.30
2022-09-06T11:11:19.664Z,75.20
2022-09-06T11:13:47.268Z,75.40
2022-09-06T11:16:21.819Z,74.90
2022-09-06T11:19:07.773Z,74.40
2022-09-06T11:22:09.361Z,70.60
2022-09-06T11:25:38.139Z,70.30
2022-09-06T11:28:10.298Z,70.70
2022-09-06T11:30:37.446Z,69.00
2022-09-06T11:33:24.132Z,69.60
2022-09-06T11:35:51.742Z,68.50
2022-09-06T11:38:23.710Z,66.90
2022-09-06T11:40:58.315Z,66.20
2022-09-06T11:43:48.640Z,67.40
2022-09-06T11:46:33.557Z,66.50
2022-09-06T11:49:06.754Z,64.80
2022-09-06T11:51:40.674Z,63.30
2022-09-06T11:54:44.956Z,64.30
2022-09-06T11:57:16.045Z,62.50
2022-09-06T11:59:54.720Z,61.70
2022-09-06T12:02:35.223Z,62.50
2022-09-06T12:05:03.801Z,61.90
2022-09-06T12:07:31.872Z,61.90
2022-09-06T12:10:02.515Z,61.70
2022-09-06T12:12:52.401Z,61.10
2022-09-06T12:15:29.986Z,59.60
2022-09-06T12:17:58.454Z,57.40
2022-09-06T12:20:53.006Z,58.20
2022-09-06T12:23:34.929Z,58.30
2022-09-06T12:26:03.626Z,57.90
2022-09-06T12:28:42.860Z,59.00
2022-09-06T12:31:31.100Z,57.60
2022-09-06T12:33:58.958Z,56.50
2022-09-06T12:36:30.300Z,56.60
2022-09-06T12:39:03.765Z,57.10
2022-09-06T12:41:38.388Z,55.10
2022-09-06T12:44:08.915Z,56.20
2022-09-06T12:46:36.838Z,54.00
2022-09-06T12:49:12.040Z,54.40
2022-09-06T12:51:40.805Z,52.20
2022-09-06T12:54:23.260Z,54.10
2022-09-06T12:56:51.510Z,53.00
2022-09-06T12:59:24.509Z,54.10
2022-09-06T13:02:00.552Z,54.40
2022-09-06T13:04:35.021Z,52.60
2022-09-06T13:07:04.259Z,52.50
2022-09-06T13:09:31.609Z,53.50
2022-09-06T13:12:08.426Z,52.60
2022-09-06T13:14:35.734Z,52.30
2022-09-06T13:17:02.732Z,51.40
2022-09-06T13:19:38.251Z,51.50
2022-09-06T13:22:10.999Z,52.20
2022-09-06T13:24:49.766Z,51.00
2022-09-06T13:27:31.484Z,51.10
2022-09-06T13:30:07.247Z,52.00
2022-09-06T13:32:35.489Z,51.00
2022-09-06T13:35:03.811Z,50.50
2022-09-06T13:37:33.821Z,50.70
2022-09-06T13:40:05.039Z,48.30
2022-09-06T13:42:33.260Z,48.60
2022-09-06T13:45:27.630Z,48.30
2022-09-06T13:48:03.478Z,48.60
2022-09-06T13:50:41.818Z,46.60
2022-09-06T13:53:08.632Z,45.10
2022-09-06T13:55:35.322Z,45.30
2022-09-06T13:58:01.958Z,44.40
2022-09-06T14:00:28.655Z,46.30
2022-09-06T14:02:55.670Z,46.60
2022-09-06T14:05:22.491Z,44.50
2022-09-06T14:07:49.145Z,45.00
2022-09-06T14:10:15.974Z,46.30
2022-09-06T14:12:42.657Z,46.50
2022-09-06T14:15:09.958Z,44.70
2022-09-06T14:17:36.702Z,43.60
2022-09-06T14:20:03.980Z,43.20
2022-09-06T14:22:30.840Z,41.30
2022-09-06T14:24:57.596Z,41.00
2022-09-06T14:27:24.336Z,41.50
2022-09-06T14:29:50.993Z,42.60
2022-09-06T14:32:22.529Z,43.00
2022-09-06T14:34:49.545Z,42.70
2022-09-06T14:37:16.253Z,43.30
2022-09-06T14:39:43.102Z,43.00
2022-09-06T14:42:09.893Z,42.10
2022-09-06T14:44:36.542Z,42.40
2022-09-06T14:47:03.430Z,42.80
2022-09-06T14:49:30.103Z,43.90
2022-09-06T14:51:56.853Z,43.60
2022-09-06T14:54:28.573Z,42.70
2022-09-06T14:56:57.191Z,42.40
2022-09-06T14:59:23.985Z,42.60
2022-09-06T15:01:50.825Z,42.00
2022-09-06T15:04:17.986Z,42.10
2022-09-06T15:06:47.188Z,41.60
2022-09-06T15:09:15.449Z,42.10
2022-09-06T15:11:45.068Z,41.70
2022-09-06T15:14:23.423Z,43.40
2022-09-06T15:16:55.931Z,41.20
2022-09-06T15:19:24.716Z,40.00
2022-09-06T15:21:51.606Z,40.40
2022-09-06T15:24:18.784Z,40.80
2022-09-06T15:26:45.468Z,40.80
2022-09-06T15:29:13.472Z,40.50
2022-09-06T15:31:41.891Z,40.80
2022-09-06T15:34:09.727Z,41.30
2022-09-06T15:36:37.621Z,41.00
2022-09-06T15:39:05.720Z,42.30
2022-09-06T15:41:35.569Z,41.20
2022-09-06T15:44:13.207Z,40.60
2022-09-06T15:46:57.547Z,40.60
2022-09-06T15:49:34.381Z,39.90
2022-09-06T15:52:02.556Z,40.90
2022-09-06T15:54:48.067Z,42.00
2022-09-06T15:57:16.448Z,41.40
2022-09-06T15:59:43.683Z,41.10
2022-09-06T16:02:11.162Z,40.90
2022-09-06T16:04:38.000Z,41.20
2022-09-06T16:07:05.960Z,42.30
2022-09-06T16:09:32.915Z,42.80
2022-09-06T16:11:59.596Z,43.70
2022-09-06T16:14:28.075Z,43.10
2022-09-06T16:16:56.300Z,43.00
2022-09-06T16:19:24.086Z,43.10
2022-09-06T16:21:50.759Z,44.20
2022-09-06T16:24:18.564Z,45.40
2022-09-06T16:26:48.653Z,46.10
2022-09-06T16:29:17.924Z,45.50
2022-09-06T16:31:45.393Z,46.60
2022-09-06T16:34:13.226Z,47.50
2022-09-06T16:36:40.196Z,47.80
2022-09-06T16:39:07.931Z,49.50
2022-09-06T16:41:42.657Z,50.80
2022-09-06T16:44:14.433Z,50.60
2022-09-06T16:46:41.723Z,51.60
2022-09-06T16:49:08.981Z,52.00
2022-09-06T16:51:36.042Z,52.60
2022-09-06T16:54:02.927Z,52.70
2022-09-06T16:56:33.502Z,54.20
2022-09-06T16:59:04.126Z,54.90
2022-09-06T17:01:32.197Z,55.20
2022-09-06T17:04:03.872Z,54.80
2022-09-06T17:06:33.027Z,55.10
2022-09-06T17:09:00.005Z,55.40
2022-09-06T17:11:28.554Z,55.70
2022-09-06T17:13:56.600Z,55.60
2022-09-06T17:16:42.426Z,56.10
2022-09-06T17:19:09.926Z,56.40
2022-09-06T17:21:39.122Z,58.00
2022-09-06T17:24:07.391Z,57.10
2022-09-06T17:26:37.142Z,58.50
2022-09-06T17:29:04.669Z,58.40
2022-09-06T17:31:31.722Z,57.30
2022-09-06T17:33:59.683Z,58.20
2022-09-06T17:36:30.342Z,58.80
2022-09-06T17:39:08.949Z,59.20
2022-09-06T17:41:39.318Z,60.10
2022-09-06T17:44:07.662Z,60.50
2022-09-06T17:46:34.300Z,61.20
2022-09-06T17:49:00.946Z,62.30
2022-09-06T17:51:28.130Z,61.40
2022-09-06T17:53:55.668Z,62.80
2022-09-06T17:56:23.147Z,62.30
2022-09-06T17:58:59.632Z,63.90
2022-09-06T18:01:29.557Z,64.10
2022-09-06T18:03:57.414Z,63.90
2022-09-06T18:06:25.958Z,64.10
2022-09-06T18:08:54.856Z,65.00
2022-09-06T18:11:27.033Z,65.60
2022-09-06T18:14:00.410Z,66.60
2022-09-06T18:16:28.480Z,67.40
2022-09-06T18:18:58.180Z,68.20
2022-09-06T18:21:27.043Z,69.50
2022-09-06T18:23:54.807Z,70.70
2022-09-06T18:26:21.939Z,72.60
2022-09-06T18:28:48.627Z,73.70
2022-09-06T18:31:17.928Z,75.20
2022-09-06T18:33:45.104Z,74.70
2022-09-06T18:36:13.337Z,76.20
2022-09-06T18:38:40.692Z,76.30
2022-09-06T18:41:09.206Z,77.10
2022-09-06T18:43:40.485Z,78.10
2022-09-06T18:46:14.617Z,78.90
2022-09-06T18:48:41.422Z,79.50
2022-09-06T18:51:08.805Z,80.20
2022-09-06T18:53:36.199Z,81.10
2022-09-06T18:56:03.033Z,82.40
2022-09-06T18:58:30.067Z,83.70
2022-09-06T19:01:04.439Z,83.90
2022-09-06T19:03:32.265Z,85.40
2022-09-06T19:06:14.008Z,86.00
2022-09-06T19:08:41.135Z,86.80
2022-09-06T19:11:13.262Z,85.90
2022-09-06T19:13:41.741Z,86.90
2022-09-06T19:16:09.984Z,87.10
2022-09-06T19:18:37.724Z,86.80
2022-09-06T19:21:09.884Z,87.60
2022-09-06T19:23:39.612Z,88.70
2022-09-06T19:26:26.849Z,90.00
2022-09-06T19:28:56.201Z,90.60
2022-09-06T19:31:28.345Z,90.90
2022-09-06T19:33:55.756Z,90.80
2022-09-06T19:36:23.597Z,91.60
2022-09-06T19:39:06.267Z,92.20
2022-09-06T19:41:37.831Z,92.40
2022-09-06T19:44:05.885Z,92.80
2022-09-06T19:46:32.896Z,92.90
2022-09-06T19:49:00.474Z,92.60
2022-09-06T19:51:27.311Z,92.10
2022-09-06T19:53:59.826Z,92.30
2022-09-06T19:56:34.671Z,92.80
2022-09-06T19:59:06.814Z,93.80
2022-09-06T20:01:35.244Z,94.50
2022-09-06T20:04:04.545Z,94.90
2022-09-06T20:06:31.799Z,95.90
2022-09-06T20:08:59.821Z,96.70
2022-09-06T20:11:28.956Z,96.20
2022-09-06T20:13:56.291Z,95.90
2022-09-06T20:16:27.247Z,96.70
2022-09-06T20:18:58.937Z,96.20
2022-09-06T20:21:27.137Z,96.40
2022-09-06T20:23:55.432Z,95.60
2022-09-06T20:26:24.000Z,95.50
2022-09-06T20:28:58.946Z,95.70
2022-09-06T20:31:26.567Z,96.50
2022-09-06T20:33:53.506Z,97.10
2022-09-06T20:36:20.652Z,97.30
2022-09-06T20:38:48.146Z,97.30
2022-09-06T20:41:23.654Z,98.00
2022-09-06T20:43:52.605Z,97.80
2022-09-06T20:46:21.528Z,98.10
2022-09-06T20:48:48.689Z,98.30
2022-09-06T20:51:19.319Z,98.90
2022-09-06T20:53:48.516Z,98.60
2022-09-06T20:56:20.189Z,98.70
2022-09-06T20:58:52.179Z,99.50
2022-09-06T21:01:22.820Z,99.40
2022-09-06T21:03:59.336Z,99.70
2022-09-06T21:06:27.953Z,99.90
2022-09-06T21:08:55.692Z,99.90
2022-09-06T21:11:22.949Z,99.90
2022-09-06T21:13:51.455Z,99.90
2022-09-06T21:16:23.927Z,99.90
2022-09-06T21:19:02.770Z,99.90
2022-09-06T21:21:31.453Z,99.90
2022-09-06T21:23:59.878Z,99.90
2022-09-06T21:26:26.579Z,99.90
2022-09-06T21:28:53.517Z,99.90
2022-09-06T21:31:28.977Z,99.90
2022-09-06T21:33:57.527Z,99.90
2022-09-06T21:36:33.853Z,99.90
2022-09-06T21:39:03.452Z,99.90
2022-09-06T21:41:31.074Z,99.90
2022-09-06T21:44:00.161Z,99.90
2022-09-06T21:46:32.915Z,99.90
2022-09-06T21:49:05.410Z,99.90
2022-09-06T21:51:32.546Z,99.90
2022-09-06T21:53:59.677Z,99.90
2022-09-06T21:56:26.573Z,99.90
2022-09-06T21:58:55.707Z,99.90
2022-09-06T22:01:26.893Z,99.90
2022-09-06T22:03:54.181Z,99.90
2022-09-06T22:06:26.465Z,99.90
2022-09-06T22:08:53.960Z,99.90
2022-09-06T22:11:21.933Z,99.90
2022-09-06T22:13:49.860Z,99.90
2022-09-06T22:16:19.050Z,99.90
2022-09-06T22:18:46.920Z,99.90
2022-09-06T22:21:18.590Z,99.90
2022-09-06T22:23:57.625Z,99.90
2022-09-06T22:26:26.577Z,99.90
2022-09-06T22:28:58.527Z,99.90
2022-09-06T22:31:26.958Z,99.90
2022-09-06T22:33:54.665Z,99.90
2022-09-06T22:36:23.314Z,99.90
2022-09-06T22:38:53.097Z,99.90
2022-09-06T22:41:19.839Z,99.90
2022-09-06T22:43:46.482Z,99.90
2022-09-06T22:46:13.459Z,99.90
2022-09-06T22:48:40.328Z,99.90
2022-09-06T22:51:07.201Z,99.90
2022-09-06T22:53:34.361Z,99.90
2022-09-06T22:56:01.541Z,99.90
2022-09-06T22:58:28.456Z,99.90
2022-09-06T23:00:56.506Z,99.90
2022-09-06T23:03:23.433Z,99.90
2022-09-06T23:05:50.111Z,99.90
2022-09-06T23:08:16.881Z,99.90
2022-09-06T23:10:44.201Z,99.90
2022-09-06T23:13:11.315Z,99.90
2022-09-06T23:15:40.717Z,99.90
2022-09-06T23:18:08.397Z,99.90
2022-09-06T23:20:37.182Z,99.90
2022-09-06T23:23:08.256Z,99.90
2022-09-06T23:25:38.833Z,99.90
2022-09-06T23:28:05.735Z,99.90
2022-09-06T23:30:32.433Z,99.90
2022-09-06T23:32:59.089Z,99.90
2022-09-06T23:35:25.772Z,99.90
2022-09-06T23:37:53.419Z,99.90
2022-09-06T23:40:20.299Z,99.90
2022-09-06T23:42:47.645Z,99.90
2022-09-06T23:45:14.648Z,99.90
2022-09-06T23:47:41.596Z,99.90
2022-09-06T23:50:09.019Z,99.90
2022-09-06T23:52:35.896Z,99.90
2022-09-06T23:55:03.086Z,99.90
2022-09-06T23:57:30.010Z,99.90
2022-09-06T23:59:56.699Z,99.90
